createdAt,value
2023-04-13T00:00:21.838Z,99157.09
2023-04-13T00:00:45.980Z,99158.02
2023-04-13T00:01:11.568Z,99158.23
2023-04-13T00:01:35.251Z,99155.83
2023-04-13T00:01:59.023Z,99157.00
2023-04-13T00:02:23.032Z,99155.71
2023-04-13T00:02:46.785Z,99152.94
2023-04-13T00:03:12.745Z,99153.42
2023-04-13T00:03:36.444Z,99152.89
2023-04-13T00:04:03.782Z,99149.66
2023-04-13T00:04:27.810Z,99153.26
2023-04-13T00:04:52.034Z,99150.52
2023-04-13T00:05:19.141Z,99153.52
2023-04-13T00:05:49.079Z,99156.11
2023-04-13T00:06:13.232Z,99157.56
2023-04-13T00:06:39.168Z,99155.92
2023-04-13T00:07:05.302Z,99158.83
2023-04-13T00:07:28.514Z,99154.56
2023-04-13T00:07:54.079Z,99157.72
2023-04-13T00:08:18.033Z,99156.41
2023-04-13T00:08:45.351Z,99157.39
2023-04-13T00:09:08.531Z,99158.48
2023-04-13T00:09:31.960Z,99158.62
2023-04-13T00:09:55.277Z,99155.76
2023-04-13T00:10:19.211Z,99159.19
2023-04-13T00:10:42.432Z,99157.55
2023-04-13T00:11:06.771Z,99158.27
2023-04-13T00:11:32.249Z,99157.48
2023-04-13T00:11:55.342Z,99156.00
2023-04-13T00:12:21.458Z,99158.61
2023-04-13T00:12:47.918Z,99158.39
2023-04-13T00:13:10.995Z,99156.42
2023-04-13T00:13:41.375Z,99156.54
2023-04-13T00:14:08.717Z,99153.68
2023-04-13T00:14:36.138Z,99157.16
2023-04-13T00:15:01.382Z,99153.85
2023-04-13T00:15:25.924Z,99156.83
2023-04-13T00:15:50.468Z,99155.02
2023-04-13T00:16:15.044Z,99158.08
2023-04-13T00:16:39.669Z,99160.08
2023-04-13T00:17:03.805Z,99161.40
2023-04-13T00:17:27.552Z,99160.76
2023-04-13T00:17:51.342Z,99159.23
2023-04-13T00:18:15.068Z,99161.77
2023-04-13T00:18:38.420Z,99159.05
2023-04-13T00:19:02.360Z,99160.84
2023-04-13T00:19:26.684Z,99164.30
2023-04-13T00:19:50.519Z,99163.60
2023-04-13T00:20:13.827Z,99159.10
2023-04-13T00:20:37.152Z,99161.95
2023-04-13T00:21:00.471Z,99160.04
2023-04-13T00:21:25.952Z,99158.40
2023-04-13T00:21:48.978Z,99161.05
2023-04-13T00:22:12.776Z,99162.16
2023-04-13T00:22:37.225Z,99160.37
2023-04-13T00:23:03.500Z,99157.67
2023-04-13T00:23:32.963Z,99158.48
2023-04-13T00:23:57.661Z,99158.34
2023-04-13T00:24:21.842Z,99157.13
2023-04-13T00:24:46.087Z,99156.55
2023-04-13T00:25:09.404Z,99157.33
2023-04-13T00:25:34.148Z,99159.86
2023-04-13T00:25:57.614Z,99157.70
2023-04-13T00:26:22.945Z,99159.01
2023-04-13T00:26:47.074Z,99158.72
2023-04-13T00:27:11.208Z,99157.29
2023-04-13T00:27:34.344Z,99160.15
2023-04-13T00:27:57.536Z,99160.12
2023-04-13T00:28:21.678Z,99159.33
2023-04-13T00:28:44.792Z,99160.16
2023-04-13T00:29:08.297Z,99159.13
2023-04-13T00:29:31.530Z,99156.39
2023-04-13T00:29:57.838Z,99156.67
2023-04-13T00:30:30.248Z,99155.94
2023-04-13T00:30:53.798Z,99154.41
2023-04-13T00:31:19.379Z,99152.94
2023-04-13T00:31:57.784Z,99151.84
2023-04-13T00:32:21.102Z,99152.81
2023-04-13T00:32:45.789Z,99150.67
2023-04-13T00:33:08.912Z,99150.15
2023-04-13T00:33:32.286Z,99152.36
2023-04-13T00:33:57.264Z,99152.02
2023-04-13T00:34:21.284Z,99148.14
2023-04-13T00:34:45.151Z,99145.68
2023-04-13T00:35:08.728Z,99148.14
2023-04-13T00:35:32.150Z,99147.24
2023-04-13T00:35:55.371Z,99147.80
2023-04-13T00:36:18.589Z,99148.64
2023-04-13T00:36:42.215Z,99148.14
2023-04-13T00:37:07.267Z,99149.56
2023-04-13T00:37:34.576Z,99142.87
2023-04-13T00:37:59.046Z,99145.78
2023-04-13T00:38:30.005Z,99148.97
2023-04-13T00:38:59.567Z,99146.36
2023-04-13T00:39:23.635Z,99145.50
2023-04-13T00:39:48.051Z,99142.52
2023-04-13T00:40:13.525Z,99146.07
2023-04-13T00:40:38.035Z,99143.45
2023-04-13T00:41:02.504Z,99151.64
2023-04-13T00:41:27.156Z,99148.70
2023-04-13T00:41:51.180Z,99148.44
2023-04-13T00:42:14.193Z,99149.05
2023-04-13T00:42:37.427Z,99155.17
2023-04-13T00:43:02.536Z,99154.92
2023-04-13T00:43:26.429Z,99153.29
2023-04-13T00:43:50.896Z,99152.89
2023-04-13T00:44:16.006Z,99152.55
2023-04-13T00:44:39.837Z,99157.55
2023-04-13T00:45:02.856Z,99157.56
2023-04-13T00:45:28.983Z,99152.50
2023-04-13T00:45:54.405Z,99152.70
2023-04-13T00:46:21.470Z,99152.05
2023-04-13T00:46:51.153Z,99150.72
2023-04-13T00:47:17.759Z,99152.84
2023-04-13T00:47:46.816Z,99149.77
2023-04-13T00:48:13.799Z,99147.95
2023-04-13T00:48:36.778Z,99146.20
2023-04-13T00:49:01.891Z,99148.20
2023-04-13T00:49:26.101Z,99144.48
2023-04-13T00:49:50.032Z,99147.66
2023-04-13T00:50:13.677Z,99149.63
2023-04-13T00:50:36.898Z,99149.42
2023-04-13T00:51:00.349Z,99149.19
2023-04-13T00:51:23.717Z,99151.44
2023-04-13T00:51:46.853Z,99150.55
2023-04-13T00:52:12.198Z,99150.48
2023-04-13T00:52:38.467Z,99148.95
2023-04-13T00:53:04.225Z,99150.09
2023-04-13T00:53:29.820Z,99149.39
2023-04-13T00:53:54.784Z,99153.23
2023-04-13T00:54:18.772Z,99153.36
2023-04-13T00:54:43.562Z,99153.36
2023-04-13T00:55:07.495Z,99154.10
2023-04-13T00:55:31.837Z,99152.06
2023-04-13T00:55:57.216Z,99153.23
2023-04-13T00:56:23.179Z,99149.15
2023-04-13T00:56:46.533Z,99148.90
2023-04-13T00:57:09.819Z,99148.61
2023-04-13T00:57:33.917Z,99147.34
2023-04-13T00:57:57.977Z,99149.17
2023-04-13T00:58:21.508Z,99149.21
2023-04-13T00:58:45.809Z,99149.09
2023-04-13T00:59:11.884Z,99145.48
2023-04-13T00:59:35.040Z,99147.05
2023-04-13T00:59:58.463Z,99146.84
2023-04-13T01:00:28.228Z,99147.32
2023-04-13T01:00:56.758Z,99145.40
2023-04-13T01:01:21.051Z,99144.29
2023-04-13T01:01:50.767Z,99146.17
2023-04-13T01:02:16.536Z,99143.47
2023-04-13T01:02:42.683Z,99148.17
2023-04-13T01:03:09.919Z,99147.23
2023-04-13T01:03:33.678Z,99145.32
2023-04-13T01:03:58.137Z,99144.47
2023-04-13T01:04:21.735Z,99142.90
2023-04-13T01:04:49.462Z,99143.86
2023-04-13T01:05:15.596Z,99144.58
2023-04-13T01:06:02.165Z,99143.47
2023-04-13T01:06:26.504Z,99141.91
2023-04-13T01:07:08.633Z,99143.39
2023-04-13T01:07:50.988Z,99141.96
2023-04-13T01:08:33.042Z,99142.49
2023-04-13T01:08:58.287Z,99139.17
2023-04-13T01:09:42.016Z,99143.45
2023-04-13T01:10:17.463Z,99142.02
2023-04-13T01:10:51.690Z,99142.09
2023-04-13T01:11:41.597Z,99140.05
2023-04-13T01:12:30.179Z,99143.84
2023-04-13T01:13:12.727Z,99144.04
2023-04-13T01:13:44.636Z,99145.14
2023-04-13T01:14:09.898Z,99142.48
2023-04-13T01:14:33.957Z,99146.40
2023-04-13T01:14:59.092Z,99144.23
2023-04-13T01:15:22.050Z,99139.75
2023-04-13T01:15:47.301Z,99144.73
2023-04-13T01:16:23.660Z,99142.09
2023-04-13T01:16:50.469Z,99140.42
2023-04-13T01:17:17.879Z,99141.33
2023-04-13T01:17:42.374Z,99139.75
2023-04-13T01:18:08.921Z,99136.30
2023-04-13T01:18:39.493Z,99137.63
2023-04-13T01:19:06.190Z,99137.55
2023-04-13T01:19:42.694Z,99134.15
2023-04-13T01:20:12.460Z,99135.59
2023-04-13T01:20:38.345Z,99132.92
2023-04-13T01:21:02.586Z,99134.05
2023-04-13T01:21:30.903Z,99134.01
2023-04-13T01:21:54.912Z,99133.02
2023-04-13T01:22:21.633Z,99133.26
2023-04-13T01:22:51.700Z,99134.40
2023-04-13T01:23:24.870Z,99132.64
2023-04-13T01:23:53.780Z,99132.73
2023-04-13T01:24:26.819Z,99132.58
2023-04-13T01:24:50.235Z,99130.73
2023-04-13T01:25:45.964Z,99133.42
2023-04-13T01:26:14.588Z,99129.52
2023-04-13T01:27:06.599Z,99132.58
2023-04-13T01:27:51.777Z,99133.02
2023-04-13T01:28:16.145Z,99133.22
2023-04-13T01:28:41.177Z,99133.71
2023-04-13T01:29:04.492Z,99135.79
2023-04-13T01:29:27.827Z,99135.61
2023-04-13T01:29:52.153Z,99137.02
2023-04-13T01:30:17.006Z,99135.58
2023-04-13T01:30:42.268Z,99138.92
2023-04-13T01:31:11.903Z,99140.80
2023-04-13T01:31:36.033Z,99140.36
2023-04-13T01:31:59.079Z,99142.02
2023-04-13T01:32:22.195Z,99143.73
2023-04-13T01:32:46.021Z,99143.08
2023-04-13T01:33:10.582Z,99146.14
2023-04-13T01:33:35.618Z,99145.20
2023-04-13T01:34:00.674Z,99145.01
2023-04-13T01:34:24.324Z,99146.32
2023-04-13T01:34:47.625Z,99145.95
2023-04-13T01:35:11.046Z,99147.17
2023-04-13T01:35:36.824Z,99148.14
2023-04-13T01:36:00.955Z,99146.20
2023-04-13T01:36:24.946Z,99146.72
2023-04-13T01:36:48.146Z,99144.67
2023-04-13T01:37:11.481Z,99147.04
2023-04-13T01:37:34.738Z,99148.48
2023-04-13T01:37:58.067Z,99147.81
2023-04-13T01:38:24.675Z,99148.50
2023-04-13T01:38:50.321Z,99144.69
2023-04-13T01:39:20.491Z,99145.20
2023-04-13T01:39:48.392Z,99144.55
2023-04-13T01:40:26.972Z,99145.23
2023-04-13T01:40:52.240Z,99141.22
2023-04-13T01:41:16.074Z,99141.41
2023-04-13T01:41:42.360Z,99143.16
2023-04-13T01:42:06.281Z,99141.27
2023-04-13T01:42:29.819Z,99144.94
2023-04-13T01:42:53.870Z,99143.46
2023-04-13T01:43:18.395Z,99143.63
2023-04-13T01:43:48.565Z,99144.65
2023-04-13T01:44:13.962Z,99147.98
2023-04-13T01:44:37.440Z,99144.00
2023-04-13T01:45:00.477Z,99144.66
2023-04-13T01:45:25.217Z,99144.71
2023-04-13T01:46:06.995Z,99148.80
2023-04-13T01:46:35.329Z,99145.70
2023-04-13T01:47:16.602Z,99147.01
2023-04-13T01:48:37.379Z,99145.87
2023-04-13T01:49:18.636Z,99144.30
2023-04-13T01:50:22.615Z,99147.31
2023-04-13T01:51:00.933Z,99145.54
2023-04-13T01:51:48.424Z,99144.45
2023-04-13T01:52:15.427Z,99145.98
2023-04-13T01:52:39.778Z,99145.67
2023-04-13T01:53:08.415Z,99146.48
2023-04-13T01:53:40.415Z,99145.88
2023-04-13T01:54:12.955Z,99146.85
2023-04-13T01:54:38.459Z,99149.13
2023-04-13T01:55:01.929Z,99153.38
2023-04-13T01:55:26.187Z,99150.98
2023-04-13T01:55:53.369Z,99151.23
2023-04-13T01:56:19.466Z,99149.98
2023-04-13T01:56:46.865Z,99151.15
2023-04-13T01:57:10.390Z,99150.58
2023-04-13T01:57:33.705Z,99152.20
2023-04-13T01:58:00.192Z,99146.88
2023-04-13T01:58:28.038Z,99147.25
2023-04-13T01:59:00.177Z,99146.89
2023-04-13T01:59:25.180Z,99141.52
2023-04-13T01:59:48.154Z,99140.73
2023-04-13T02:00:14.206Z,99143.63
2023-04-13T02:00:41.628Z,99141.95
2023-04-13T02:01:08.177Z,99139.17
2023-04-13T02:01:51.268Z,99137.25
2023-04-13T02:02:17.539Z,99137.42
2023-04-13T02:02:42.317Z,99138.06
2023-04-13T02:03:09.967Z,99136.10
2023-04-13T02:03:36.302Z,99137.29
2023-04-13T02:04:01.881Z,99142.21
2023-04-13T02:04:29.653Z,99139.88
2023-04-13T02:04:53.895Z,99140.23
2023-04-13T02:05:17.929Z,99137.54
2023-04-13T02:05:42.280Z,99139.97
2023-04-13T02:06:05.475Z,99143.33
2023-04-13T02:06:29.109Z,99145.65
2023-04-13T02:06:52.859Z,99143.56
2023-04-13T02:07:23.931Z,99143.42
2023-04-13T02:07:47.866Z,99147.14
2023-04-13T02:08:10.873Z,99145.37
2023-04-13T02:08:38.814Z,99145.03
2023-04-13T02:09:02.015Z,99144.98
2023-04-13T02:09:25.339Z,99144.12
2023-04-13T02:09:50.504Z,99141.82
2023-04-13T02:10:16.469Z,99139.48
2023-04-13T02:10:43.070Z,99140.17
2023-04-13T02:11:07.910Z,99139.15
2023-04-13T02:11:37.755Z,99137.66
2023-04-13T02:12:12.971Z,99138.64
2023-04-13T02:12:36.075Z,99137.54
2023-04-13T02:13:04.211Z,99137.02
2023-04-13T02:13:31.094Z,99139.05
2023-04-13T02:13:58.259Z,99139.99
2023-04-13T02:14:21.927Z,99142.04
2023-04-13T02:14:47.199Z,99142.37
2023-04-13T02:15:11.856Z,99142.98
2023-04-13T02:15:37.814Z,99143.18
2023-04-13T02:16:01.404Z,99144.48
2023-04-13T02:16:25.504Z,99144.20
2023-04-13T02:16:49.078Z,99145.50
2023-04-13T02:17:12.318Z,99144.75
2023-04-13T02:17:37.082Z,99148.42
2023-04-13T02:18:00.419Z,99145.67
2023-04-13T02:18:24.827Z,99146.49
2023-04-13T02:18:49.371Z,99148.48
2023-04-13T02:19:13.653Z,99148.39
2023-04-13T02:19:36.947Z,99149.24
2023-04-13T02:20:11.232Z,99147.77
2023-04-13T02:20:45.556Z,99149.89
2023-04-13T02:21:12.453Z,99150.36
2023-04-13T02:21:37.416Z,99145.57
2023-04-13T02:22:02.258Z,99145.61
2023-04-13T02:22:27.645Z,99148.42
2023-04-13T02:22:51.565Z,99149.64
2023-04-13T02:23:15.233Z,99148.23
2023-04-13T02:23:40.742Z,99146.10
2023-04-13T02:24:04.351Z,99145.45
2023-04-13T02:24:27.512Z,99149.28
2023-04-13T02:24:55.014Z,99145.24
2023-04-13T02:25:19.066Z,99144.92
2023-04-13T02:25:44.820Z,99147.17
2023-04-13T02:26:09.674Z,99146.52
2023-04-13T02:26:33.197Z,99147.27
2023-04-13T02:26:56.838Z,99145.23
2023-04-13T02:27:19.932Z,99147.77
2023-04-13T02:27:43.147Z,99147.65
2023-04-13T02:28:06.355Z,99151.33
2023-04-13T02:28:32.030Z,99149.86
2023-04-13T02:28:59.246Z,99150.63
2023-04-13T02:29:39.634Z,99152.80
2023-04-13T02:30:03.074Z,99154.18
2023-04-13T02:30:28.626Z,99155.44
2023-04-13T02:30:55.726Z,99154.92
2023-04-13T02:31:23.556Z,99156.63
2023-04-13T02:31:49.147Z,99156.41
2023-04-13T02:32:12.365Z,99157.56
2023-04-13T02:32:36.504Z,99154.89
2023-04-13T02:33:00.145Z,99155.55
2023-04-13T02:33:23.717Z,99156.52
2023-04-13T02:33:47.761Z,99155.34
2023-04-13T02:34:11.496Z,99158.43
2023-04-13T02:34:35.212Z,99157.73
2023-04-13T02:34:59.975Z,99159.77
2023-04-13T02:35:23.088Z,99158.42
2023-04-13T02:35:46.502Z,99158.55
2023-04-13T02:36:10.223Z,99158.09
2023-04-13T02:36:36.819Z,99160.78
2023-04-13T02:37:03.406Z,99160.70
2023-04-13T02:37:34.701Z,99158.84
2023-04-13T02:38:04.165Z,99159.56
2023-04-13T02:38:31.019Z,99161.86
2023-04-13T02:39:01.939Z,99164.88
2023-04-13T02:39:29.759Z,99162.52
2023-04-13T02:39:55.939Z,99161.52
2023-04-13T02:40:20.898Z,99161.40
2023-04-13T02:40:44.123Z,99163.86
2023-04-13T02:41:08.042Z,99158.27
2023-04-13T02:41:31.266Z,99156.91
2023-04-13T02:41:54.696Z,99159.55
2023-04-13T02:42:18.339Z,99156.32
2023-04-13T02:42:41.743Z,99158.98
2023-04-13T02:43:05.483Z,99159.05
2023-04-13T02:43:31.955Z,99156.10
2023-04-13T02:43:56.084Z,99158.89
2023-04-13T02:44:22.285Z,99152.91
2023-04-13T02:44:50.901Z,99152.47
2023-04-13T02:45:23.216Z,99152.58
2023-04-13T02:45:50.494Z,99152.69
2023-04-13T02:46:16.565Z,99154.23
2023-04-13T02:46:46.675Z,99153.92
2023-04-13T02:47:13.471Z,99154.29
2023-04-13T02:47:38.802Z,99152.51
2023-04-13T02:48:02.591Z,99154.27
2023-04-13T02:48:28.456Z,99154.58
2023-04-13T02:48:51.578Z,99152.94
2023-04-13T02:49:15.994Z,99155.42
2023-04-13T02:50:02.250Z,99153.66
2023-04-13T02:50:33.113Z,99157.09
2023-04-13T02:51:01.104Z,99154.14
2023-04-13T02:51:28.144Z,99153.68
2023-04-13T02:51:52.368Z,99155.16
2023-04-13T02:52:16.749Z,99152.70
2023-04-13T02:52:49.236Z,99149.79
2023-04-13T02:53:15.420Z,99150.95
2023-04-13T02:53:38.957Z,99150.38
2023-04-13T02:54:02.861Z,99150.09
2023-04-13T02:54:30.181Z,99145.79
2023-04-13T02:54:57.090Z,99143.94
2023-04-13T02:55:23.467Z,99144.44
2023-04-13T02:55:53.777Z,99145.52
2023-04-13T02:56:17.874Z,99144.46
2023-04-13T02:56:43.356Z,99142.39
2023-04-13T02:57:06.456Z,99143.50
2023-04-13T02:57:32.164Z,99143.19
2023-04-13T02:57:55.772Z,99144.77
2023-04-13T02:58:20.513Z,99145.48
2023-04-13T02:58:47.300Z,99146.08
2023-04-13T02:59:13.277Z,99147.33
2023-04-13T02:59:38.538Z,99143.29
2023-04-13T03:00:03.104Z,99144.98
2023-04-13T03:00:36.221Z,99147.48
2023-04-13T03:01:14.323Z,99146.04
2023-04-13T03:01:39.910Z,99143.23
2023-04-13T03:02:07.664Z,99146.98
2023-04-13T03:02:31.459Z,99147.33
2023-04-13T03:02:55.474Z,99146.63
2023-04-13T03:03:20.709Z,99144.61
2023-04-13T03:03:46.042Z,99143.70
2023-04-13T03:04:09.377Z,99150.12
2023-04-13T03:04:32.926Z,99149.98
2023-04-13T03:04:56.745Z,99151.98
2023-04-13T03:05:20.545Z,99152.56
2023-04-13T03:05:44.077Z,99150.31
2023-04-13T03:06:10.144Z,99151.70
2023-04-13T03:06:38.610Z,99158.04
2023-04-13T03:07:05.278Z,99158.16
2023-04-13T03:07:28.692Z,99154.19
2023-04-13T03:07:51.909Z,99159.66
2023-04-13T03:08:15.842Z,99158.45
2023-04-13T03:08:48.874Z,99164.64
2023-04-13T03:09:18.134Z,99162.20
2023-04-13T03:09:48.425Z,99162.29
2023-04-13T03:10:12.129Z,99160.98
2023-04-13T03:10:37.416Z,99165.14
2023-04-13T03:11:06.481Z,99161.98
2023-04-13T03:11:32.006Z,99167.83
2023-04-13T03:12:09.291Z,99164.98
2023-04-13T03:12:33.660Z,99167.91
2023-04-13T03:12:58.016Z,99165.48
2023-04-13T03:13:22.052Z,99166.89
2023-04-13T03:13:45.447Z,99169.60
2023-04-13T03:14:13.380Z,99167.27
2023-04-13T03:14:37.014Z,99170.36
2023-04-13T03:15:03.213Z,99171.48
2023-04-13T03:15:26.537Z,99172.91
2023-04-13T03:15:51.096Z,99173.89
2023-04-13T03:16:15.245Z,99174.37
2023-04-13T03:16:44.034Z,99172.70
2023-04-13T03:17:08.494Z,99175.35
2023-04-13T03:17:41.597Z,99178.11
2023-04-13T03:18:06.783Z,99178.64
2023-04-13T03:18:33.169Z,99180.60
2023-04-13T03:18:56.284Z,99180.32
2023-04-13T03:19:20.013Z,99177.33
2023-04-13T03:19:47.320Z,99179.98
2023-04-13T03:20:13.178Z,99177.21
2023-04-13T03:20:36.926Z,99178.70
2023-04-13T03:21:01.680Z,99176.16
2023-04-13T03:21:30.719Z,99176.61
2023-04-13T03:22:01.607Z,99174.14
2023-04-13T03:22:26.192Z,99172.95
2023-04-13T03:22:49.577Z,99173.11
2023-04-13T03:23:12.636Z,99173.38
2023-04-13T03:23:38.255Z,99169.46
2023-04-13T03:24:03.108Z,99167.22
2023-04-13T03:24:28.689Z,99166.20
2023-04-13T03:24:54.100Z,99164.30
2023-04-13T03:25:25.360Z,99165.82
2023-04-13T03:25:49.070Z,99165.19
2023-04-13T03:26:13.201Z,99164.45
2023-04-13T03:26:36.726Z,99166.04
2023-04-13T03:27:02.707Z,99168.59
2023-04-13T03:27:30.832Z,99164.35
2023-04-13T03:27:54.686Z,99168.38
2023-04-13T03:28:19.659Z,99170.23
2023-04-13T03:28:42.842Z,99166.37
2023-04-13T03:29:07.178Z,99169.37
2023-04-13T03:29:32.559Z,99169.95
2023-04-13T03:29:56.064Z,99166.48
2023-04-13T03:30:19.487Z,99169.31
2023-04-13T03:31:08.186Z,99171.86
2023-04-13T03:31:32.833Z,99174.17
2023-04-13T03:31:56.950Z,99176.90
2023-04-13T03:32:21.544Z,99177.19
2023-04-13T03:32:47.165Z,99179.64
2023-04-13T03:33:10.485Z,99176.16
2023-04-13T03:33:34.725Z,99177.12
2023-04-13T03:33:59.109Z,99174.90
2023-04-13T03:34:23.507Z,99177.46
2023-04-13T03:34:47.031Z,99178.58
2023-04-13T03:35:10.353Z,99178.49
2023-04-13T03:35:33.771Z,99179.54
2023-04-13T03:35:58.011Z,99179.59
2023-04-13T03:36:25.220Z,99179.14
2023-04-13T03:36:53.218Z,99179.30
2023-04-13T03:37:22.216Z,99178.53
2023-04-13T03:37:46.333Z,99176.69
2023-04-13T03:38:21.807Z,99179.22
2023-04-13T03:38:45.158Z,99174.56
2023-04-13T03:39:08.649Z,99176.55
2023-04-13T03:39:33.118Z,99178.38
2023-04-13T03:39:56.621Z,99178.37
2023-04-13T03:40:20.097Z,99176.64
2023-04-13T03:40:48.779Z,99177.21
2023-04-13T03:41:11.995Z,99177.63
2023-04-13T03:41:35.939Z,99173.91
2023-04-13T03:41:59.248Z,99174.30
2023-04-13T03:42:22.766Z,99173.80
2023-04-13T03:42:50.090Z,99174.64
2023-04-13T03:43:15.137Z,99178.06
2023-04-13T03:43:41.844Z,99180.05
2023-04-13T03:44:08.598Z,99179.30
2023-04-13T03:44:32.862Z,99174.05
2023-04-13T03:44:58.438Z,99174.23
2023-04-13T03:45:21.680Z,99176.36
2023-04-13T03:45:45.171Z,99176.57
2023-04-13T03:46:10.913Z,99173.18
2023-04-13T03:46:37.586Z,99172.41
2023-04-13T03:47:06.288Z,99175.80
2023-04-13T03:47:31.789Z,99170.69
2023-04-13T03:47:54.818Z,99173.88
2023-04-13T03:48:18.143Z,99173.75
2023-04-13T03:48:42.418Z,99171.54
2023-04-13T03:49:08.702Z,99174.20
2023-04-13T03:49:38.457Z,99175.02
2023-04-13T03:50:01.615Z,99174.73
2023-04-13T03:50:28.877Z,99180.08
2023-04-13T03:50:53.534Z,99182.72
2023-04-13T03:51:22.217Z,99185.22
2023-04-13T03:51:46.916Z,99187.79
2023-04-13T03:52:10.949Z,99189.75
2023-04-13T03:52:36.976Z,99193.63
2023-04-13T03:53:00.460Z,99194.55
2023-04-13T03:53:23.667Z,99195.70
2023-04-13T03:53:49.030Z,99198.34
2023-04-13T03:54:14.699Z,99200.93
2023-04-13T03:54:38.164Z,99204.79
2023-04-13T03:55:02.092Z,99201.30
2023-04-13T03:55:28.030Z,99203.77
2023-04-13T03:55:54.418Z,99207.27
2023-04-13T03:56:17.542Z,99205.09
2023-04-13T03:56:41.772Z,99206.85
2023-04-13T03:57:06.214Z,99207.33
2023-04-13T03:57:30.350Z,99204.95
2023-04-13T03:57:55.548Z,99206.92
2023-04-13T03:58:22.206Z,99202.02
2023-04-13T03:58:46.362Z,99203.90
2023-04-13T03:59:10.729Z,99201.80
2023-04-13T03:59:33.982Z,99201.33
2023-04-13T03:59:57.835Z,99200.55
2023-04-13T04:00:37.442Z,99196.57
2023-04-13T04:01:10.957Z,99199.97
2023-04-13T04:01:41.278Z,99201.94
2023-04-13T04:02:06.265Z,99200.02
2023-04-13T04:02:31.287Z,99201.44
2023-04-13T04:02:54.785Z,99206.20
2023-04-13T04:03:24.496Z,99201.51
2023-04-13T04:03:51.249Z,99203.98
2023-04-13T04:04:14.464Z,99203.55
2023-04-13T04:04:40.433Z,99204.11
2023-04-13T04:05:09.436Z,99205.60
2023-04-13T04:05:34.289Z,99206.20
2023-04-13T04:06:02.335Z,99207.47
2023-04-13T04:06:31.482Z,99208.77
2023-04-13T04:07:03.803Z,99208.86
2023-04-13T04:07:28.149Z,99207.80
2023-04-13T04:07:51.462Z,99205.27
2023-04-13T04:08:14.787Z,99210.14
2023-04-13T04:08:38.714Z,99211.05
2023-04-13T04:09:05.920Z,99210.48
2023-04-13T04:09:37.417Z,99213.31
2023-04-13T04:10:00.539Z,99212.48
2023-04-13T04:10:24.476Z,99212.89
2023-04-13T04:10:47.892Z,99211.02
2023-04-13T04:11:12.129Z,99214.38
2023-04-13T04:11:35.199Z,99216.07
2023-04-13T04:11:59.068Z,99212.34
2023-04-13T04:12:32.722Z,99214.61
2023-04-13T04:12:57.058Z,99218.86
2023-04-13T04:13:26.206Z,99216.62
2023-04-13T04:13:57.949Z,99217.36
2023-04-13T04:14:23.174Z,99218.33
2023-04-13T04:14:51.306Z,99210.08
2023-04-13T04:15:19.038Z,99218.84
2023-04-13T04:15:42.640Z,99216.63
2023-04-13T04:16:07.301Z,99218.08
2023-04-13T04:16:32.900Z,99219.56
2023-04-13T04:17:06.670Z,99219.94
2023-04-13T04:17:29.890Z,99220.52
2023-04-13T04:17:53.578Z,99220.86
2023-04-13T04:18:18.712Z,99219.67
2023-04-13T04:18:42.343Z,99220.53
2023-04-13T04:19:05.961Z,99223.25
2023-04-13T04:19:28.986Z,99223.50
2023-04-13T04:19:52.634Z,99222.50
2023-04-13T04:20:18.782Z,99219.64
2023-04-13T04:20:41.997Z,99221.20
2023-04-13T04:21:07.058Z,99220.71
2023-04-13T04:21:38.863Z,99223.52
2023-04-13T04:22:07.691Z,99222.11
2023-04-13T04:22:37.569Z,99220.92
2023-04-13T04:23:05.125Z,99221.73
2023-04-13T04:23:38.113Z,99223.79
2023-04-13T04:24:02.254Z,99223.00
2023-04-13T04:24:27.875Z,99223.37
2023-04-13T04:24:53.804Z,99224.66
2023-04-13T04:25:22.845Z,99224.14
2023-04-13T04:25:47.746Z,99227.27
2023-04-13T04:26:14.186Z,99226.55
2023-04-13T04:26:42.111Z,99229.37
2023-04-13T04:27:05.951Z,99228.14
2023-04-13T04:27:29.048Z,99227.46
2023-04-13T04:27:58.007Z,99229.05
2023-04-13T04:28:22.348Z,99226.01
2023-04-13T04:28:45.952Z,99226.71
2023-04-13T04:29:22.392Z,99225.30
2023-04-13T04:29:49.601Z,99227.88
2023-04-13T04:30:41.127Z,99223.95
2023-04-13T04:31:13.234Z,99226.25
2023-04-13T04:31:44.064Z,99223.52
2023-04-13T04:32:11.842Z,99228.93
2023-04-13T04:32:37.129Z,99229.71
2023-04-13T04:33:06.088Z,99231.26
2023-04-13T04:33:31.658Z,99228.99
2023-04-13T04:33:55.341Z,99233.73
2023-04-13T04:34:21.394Z,99231.52
2023-04-13T04:34:46.920Z,99229.66
2023-04-13T04:35:14.509Z,99231.38
2023-04-13T04:35:51.672Z,99231.41
2023-04-13T04:36:21.187Z,99231.11
2023-04-13T04:36:58.047Z,99229.97
2023-04-13T04:37:26.536Z,99231.30
2023-04-13T04:38:06.667Z,99227.84
2023-04-13T04:38:33.017Z,99231.59
2023-04-13T04:39:02.708Z,99228.94
2023-04-13T04:39:33.158Z,99234.13
2023-04-13T04:40:01.993Z,99234.38
2023-04-13T04:40:25.860Z,99233.47
2023-04-13T04:40:49.859Z,99233.61
2023-04-13T04:41:14.208Z,99234.41
2023-04-13T04:41:38.062Z,99234.23
2023-04-13T04:42:05.252Z,99233.65
2023-04-13T04:42:29.475Z,99232.73
2023-04-13T04:42:58.432Z,99230.16
2023-04-13T04:43:30.362Z,99232.92
2023-04-13T04:43:56.970Z,99233.67
2023-04-13T04:44:25.385Z,99235.39
2023-04-13T04:44:50.461Z,99236.11
2023-04-13T04:45:15.359Z,99237.06
2023-04-13T04:45:43.836Z,99239.89
2023-04-13T04:46:10.212Z,99235.54
2023-04-13T04:46:34.222Z,99236.83
2023-04-13T04:47:00.302Z,99237.02
2023-04-13T04:47:24.582Z,99232.91
2023-04-13T04:48:11.977Z,99234.36
2023-04-13T04:48:37.788Z,99235.70
2023-04-13T04:49:01.918Z,99234.96
2023-04-13T04:49:28.198Z,99233.08
2023-04-13T04:49:51.718Z,99228.91
2023-04-13T04:50:14.926Z,99226.45
2023-04-13T04:50:45.030Z,99230.17
2023-04-13T04:51:11.795Z,99225.46
2023-04-13T04:51:36.849Z,99224.36
2023-04-13T04:52:00.078Z,99228.42
2023-04-13T04:52:24.682Z,99222.68
2023-04-13T04:52:48.858Z,99227.27
2023-04-13T04:53:15.953Z,99229.19
2023-04-13T04:53:39.066Z,99225.80
2023-04-13T04:54:04.054Z,99227.30
2023-04-13T04:54:27.346Z,99228.95
2023-04-13T04:54:51.992Z,99228.77
2023-04-13T04:55:17.146Z,99228.88
2023-04-13T04:55:40.680Z,99227.58
2023-04-13T04:56:06.875Z,99227.95
2023-04-13T04:56:39.479Z,99231.66
2023-04-13T04:57:04.843Z,99231.13
2023-04-13T04:57:29.752Z,99230.07
2023-04-13T04:57:53.226Z,99235.30
2023-04-13T04:58:19.718Z,99234.85
2023-04-13T04:58:45.784Z,99235.36
2023-04-13T04:59:10.644Z,99237.02
2023-04-13T04:59:41.016Z,99236.75
2023-04-13T05:00:15.710Z,99239.45
2023-04-13T05:00:43.716Z,99240.14
2023-04-13T05:01:12.956Z,99241.00
2023-04-13T05:01:38.973Z,99240.86
2023-04-13T05:02:08.312Z,99240.73
2023-04-13T05:02:32.304Z,99239.20
2023-04-13T05:02:57.857Z,99237.48
2023-04-13T05:03:21.797Z,99237.54
2023-04-13T05:03:49.866Z,99238.33
2023-04-13T05:04:26.775Z,99238.56
2023-04-13T05:04:50.234Z,99233.52
2023-04-13T05:05:14.249Z,99234.58
2023-04-13T05:05:41.775Z,99233.11
2023-04-13T05:06:09.262Z,99232.58
2023-04-13T05:06:35.535Z,99229.95
2023-04-13T05:07:57.254Z,99229.75
2023-04-13T05:08:20.681Z,99231.94
2023-04-13T05:08:45.121Z,99233.37
2023-04-13T05:09:09.158Z,99233.42
2023-04-13T05:09:34.217Z,99232.98
2023-04-13T05:09:57.323Z,99236.45
2023-04-13T05:10:21.054Z,99235.89
2023-04-13T05:10:48.778Z,99237.61
2023-04-13T05:11:11.882Z,99237.56
2023-04-13T05:11:36.687Z,99238.02
2023-04-13T05:12:01.078Z,99238.39
2023-04-13T05:12:24.392Z,99236.80
2023-04-13T05:12:48.331Z,99238.47